createdAt,value
2023-03-10T00:00:04.671Z,22.38
2023-03-10T00:03:27.030Z,22.40
2023-03-10T00:06:49.098Z,22.43
2023-03-10T00:10:12.677Z,22.45
2023-03-10T00:13:34.988Z,22.47
2023-03-10T00:16:56.801Z,22.49
2023-03-10T00:20:18.678Z,22.50
2023-03-10T00:23:40.656Z,22.52
2023-03-10T00:27:02.453Z,22.54
2023-03-10T00:30:24.297Z,22.55
2023-03-10T00:33:46.853Z,22.57
2023-03-10T00:37:09.422Z,22.60
2023-03-10T00:40:31.267Z,22.62
2023-03-10T00:43:53.106Z,22.64
2023-03-10T00:47:14.929Z,22.65
2023-03-10T00:50:39.502Z,22.67
2023-03-10T00:54:02.774Z,22.68
2023-03-10T00:57:24.734Z,22.70
2023-03-10T01:00:46.523Z,22.73
2023-03-10T01:04:12.501Z,22.75
2023-03-10T01:07:34.292Z,22.77
2023-03-10T01:10:56.748Z,22.78
2023-03-10T01:14:19.153Z,22.80
2023-03-10T01:17:41.135Z,22.81
2023-03-10T01:21:03.507Z,22.84
2023-03-10T01:24:25.502Z,22.86
2023-03-10T01:27:47.316Z,22.88
2023-03-10T01:31:09.426Z,22.90
2023-03-10T01:34:31.248Z,22.94
2023-03-10T01:37:53.129Z,22.96
2023-03-10T01:41:16.182Z,22.98
2023-03-10T01:44:39.429Z,23.00
2023-03-10T01:48:01.484Z,23.03
2023-03-10T01:51:24.151Z,23.06
2023-03-10T01:54:49.922Z,23.07
2023-03-10T01:58:12.426Z,23.11
2023-03-10T02:01:35.033Z,23.12
2023-03-10T02:04:58.057Z,23.12
2023-03-10T02:08:20.912Z,23.16
2023-03-10T02:11:43.122Z,23.19
2023-03-10T02:15:05.503Z,23.23
2023-03-10T02:18:28.485Z,23.25
2023-03-10T02:22:17.251Z,23.27
2023-03-10T02:26:25.372Z,23.33
2023-03-10T02:29:59.578Z,23.36
2023-03-10T02:33:28.592Z,23.40
2023-03-10T02:36:51.241Z,23.43
2023-03-10T02:40:32.447Z,23.45
2023-03-10T02:43:56.868Z,23.48
2023-03-10T02:47:21.670Z,23.50
2023-03-10T02:50:47.720Z,23.51
2023-03-10T02:54:10.693Z,23.52
2023-03-10T02:57:33.291Z,23.54
2023-03-10T03:00:56.281Z,23.55
2023-03-10T03:04:18.298Z,23.57
2023-03-10T03:07:40.966Z,23.57
2023-03-10T03:11:02.785Z,23.60
2023-03-10T03:14:24.729Z,23.61
2023-03-10T03:17:47.498Z,23.63
2023-03-10T03:21:11.737Z,23.64
2023-03-10T03:24:33.844Z,23.65
2023-03-10T03:27:57.635Z,23.66
2023-03-10T03:31:22.197Z,23.67
2023-03-10T03:34:45.906Z,23.69
2023-03-10T03:38:08.740Z,23.70
2023-03-10T03:41:30.916Z,23.72
2023-03-10T03:44:53.504Z,23.74
2023-03-10T03:48:16.005Z,23.75
2023-03-10T03:51:38.460Z,23.77
2023-03-10T03:55:00.488Z,23.81
2023-03-10T03:58:22.502Z,23.82
2023-03-10T04:01:46.131Z,23.83
2023-03-10T04:05:11.188Z,23.85
2023-03-10T04:08:33.306Z,23.87
2023-03-10T04:11:55.564Z,23.87
2023-03-10T04:15:18.217Z,23.90
2023-03-10T04:18:40.003Z,23.91
2023-03-10T04:22:02.503Z,23.91
2023-03-10T04:25:25.367Z,23.94
2023-03-10T04:28:47.442Z,23.96
2023-03-10T04:32:11.098Z,23.98
2023-03-10T04:35:35.170Z,24.02
2023-03-10T04:38:58.534Z,24.05
2023-03-10T04:42:28.140Z,24.06
2023-03-10T04:45:52.200Z,24.08
2023-03-10T04:49:18.131Z,24.08
2023-03-10T04:52:41.680Z,24.13
2023-03-10T04:56:06.414Z,24.16
2023-03-10T04:59:28.687Z,24.16
2023-03-10T05:02:50.722Z,24.18
2023-03-10T05:06:20.912Z,24.21
2023-03-10T05:09:48.505Z,24.21
2023-03-10T05:13:14.110Z,24.23
2023-03-10T05:16:36.297Z,24.26
2023-03-10T05:19:58.529Z,24.27
2023-03-10T05:23:21.014Z,24.31
2023-03-10T05:26:43.109Z,24.34
2023-03-10T05:30:06.693Z,24.36
2023-03-10T05:33:31.312Z,24.39
2023-03-10T05:36:54.356Z,24.41
2023-03-10T05:40:20.392Z,24.42
2023-03-10T05:43:42.516Z,24.44
2023-03-10T05:47:06.190Z,24.47
2023-03-10T05:50:30.700Z,24.48
2023-03-10T05:53:53.226Z,24.49
2023-03-10T05:57:18.704Z,24.51
2023-03-10T06:00:40.829Z,24.51
2023-03-10T06:04:02.621Z,24.55
2023-03-10T06:07:27.354Z,24.56
2023-03-10T06:10:49.645Z,24.58
2023-03-10T06:14:11.520Z,24.60
2023-03-10T06:17:33.608Z,24.63
2023-03-10T06:20:55.694Z,24.63
2023-03-10T06:24:17.582Z,24.64
2023-03-10T06:27:41.668Z,24.67
2023-03-10T06:31:06.654Z,24.67
2023-03-10T06:34:28.509Z,24.72
2023-03-10T06:37:50.298Z,24.72
2023-03-10T06:41:12.586Z,24.74
2023-03-10T06:44:35.309Z,24.75
2023-03-10T06:47:57.026Z,24.76
2023-03-10T06:51:20.767Z,24.77
2023-03-10T06:54:42.544Z,24.79
2023-03-10T06:58:04.407Z,24.80
2023-03-10T07:01:33.397Z,24.82
2023-03-10T07:04:55.296Z,24.81
2023-03-10T07:08:17.064Z,24.82
2023-03-10T07:11:38.797Z,24.83
2023-03-10T07:15:00.633Z,24.83
2023-03-10T07:18:22.967Z,24.81
2023-03-10T07:21:45.472Z,24.81
2023-03-10T07:25:07.841Z,24.81
2023-03-10T07:28:31.425Z,24.81
2023-03-10T07:31:54.543Z,24.82
2023-03-10T07:35:16.420Z,24.83
2023-03-10T07:38:38.300Z,24.82
2023-03-10T07:42:00.124Z,24.82
2023-03-10T07:45:23.989Z,24.81
2023-03-10T07:48:45.781Z,24.82
2023-03-10T07:52:07.538Z,24.82
2023-03-10T07:55:29.366Z,24.77
2023-03-10T07:58:51.137Z,24.74
2023-03-10T08:02:14.555Z,24.70
2023-03-10T08:05:41.519Z,24.70
2023-03-10T08:09:03.597Z,24.65
2023-03-10T08:12:25.587Z,24.59
2023-03-10T08:15:47.417Z,24.55
2023-03-10T08:19:09.274Z,24.55
2023-03-10T08:22:31.045Z,24.57
2023-03-10T08:25:52.821Z,24.61
2023-03-10T08:29:18.294Z,24.65
2023-03-10T08:32:40.486Z,24.66
2023-03-10T08:36:17.035Z,24.71
2023-03-10T08:39:39.017Z,24.76
2023-03-10T08:43:00.996Z,24.82
2023-03-10T08:46:25.604Z,24.88
2023-03-10T08:49:50.729Z,24.94
2023-03-10T08:53:12.723Z,24.98
2023-03-10T08:56:36.002Z,25.01
2023-03-10T08:59:58.507Z,25.01
2023-03-10T09:03:20.819Z,24.95
2023-03-10T09:06:42.825Z,24.89
2023-03-10T09:10:05.974Z,24.82
2023-03-10T09:13:28.015Z,24.77
2023-03-10T09:16:49.870Z,24.73
2023-03-10T09:20:12.329Z,24.70
2023-03-10T09:23:34.388Z,24.70
2023-03-10T09:26:56.371Z,24.71
2023-03-10T09:30:18.212Z,24.76
2023-03-10T09:33:41.463Z,24.80
2023-03-10T09:37:03.721Z,24.85
2023-03-10T09:40:25.930Z,24.92
2023-03-10T09:43:54.384Z,24.97
2023-03-10T09:47:48.191Z,25.04
2023-03-10T09:51:22.912Z,26.06
2023-03-10T09:55:15.852Z,26.50
2023-03-10T09:59:16.497Z,26.84
2023-03-10T10:02:45.957Z,27.28
2023-03-10T10:06:07.551Z,27.68
2023-03-10T10:09:42.198Z,28.03
2023-03-10T10:13:16.186Z,28.43
2023-03-10T10:16:47.492Z,28.81
2023-03-10T10:20:21.666Z,29.10
2023-03-10T10:23:52.110Z,29.38
2023-03-10T10:27:18.332Z,29.66
2023-03-10T10:30:42.294Z,29.85
2023-03-10T10:34:07.295Z,29.98
2023-03-10T10:37:34.231Z,30.11
2023-03-10T10:41:05.756Z,30.27
2023-03-10T10:44:28.373Z,30.36
2023-03-10T10:51:29.739Z,30.57
2023-03-10T10:54:56.995Z,30.62
2023-03-10T10:58:32.556Z,30.65
2023-03-10T11:01:57.589Z,30.63
2023-03-10T11:05:23.084Z,30.67
2023-03-10T11:08:51.246Z,30.81
2023-03-10T11:12:50.346Z,30.93
2023-03-10T11:16:42.813Z,30.88
2023-03-10T11:20:14.956Z,30.85
2023-03-10T11:23:51.517Z,30.83
2023-03-10T11:27:38.933Z,30.78
2023-03-10T11:31:21.493Z,30.73
2023-03-10T11:34:51.912Z,30.67
2023-03-10T11:38:31.683Z,30.57
2023-03-10T11:42:26.108Z,30.48
2023-03-10T11:45:54.491Z,30.40
2023-03-10T11:49:20.691Z,30.43
2023-03-10T11:52:43.120Z,30.41
2023-03-10T11:56:07.424Z,30.37
2023-03-10T11:59:32.099Z,30.43
2023-03-10T12:02:56.712Z,30.35
2023-03-10T12:06:24.300Z,29.95
2023-03-10T12:09:54.372Z,29.25
2023-03-10T12:13:27.111Z,28.76
2023-03-10T12:16:49.325Z,28.41
2023-03-10T12:20:12.988Z,28.24
2023-03-10T12:23:44.167Z,28.24
2023-03-10T12:27:05.927Z,28.30
2023-03-10T12:30:45.675Z,28.32
2023-03-10T12:34:23.936Z,28.40
2023-03-10T12:37:46.111Z,28.47
2023-03-10T12:41:08.745Z,28.54
2023-03-10T12:44:33.653Z,28.56
2023-03-10T12:48:13.314Z,28.61
2023-03-10T12:51:47.393Z,28.64
2023-03-10T12:55:18.410Z,28.63
2023-03-10T12:59:03.454Z,28.60
2023-03-10T13:02:34.079Z,28.57
2023-03-10T13:06:03.321Z,28.54
2023-03-10T13:09:32.232Z,28.45
2023-03-10T13:13:02.009Z,28.36
2023-03-10T13:16:23.751Z,28.28
2023-03-10T13:20:00.297Z,28.16
2023-03-10T13:23:24.452Z,28.04
2023-03-10T13:26:46.303Z,28.00
2023-03-10T13:30:20.268Z,27.98
2023-03-10T13:33:52.954Z,28.02
2023-03-10T13:37:15.578Z,28.06
2023-03-10T13:40:41.813Z,28.13
2023-03-10T13:44:03.833Z,28.24
2023-03-10T13:47:27.359Z,28.36
2023-03-10T13:51:07.477Z,28.48
2023-03-10T13:54:31.676Z,28.66
2023-03-10T13:57:54.736Z,28.79
2023-03-10T14:01:35.381Z,28.87
2023-03-10T14:05:01.174Z,28.94
2023-03-10T14:08:28.852Z,29.00
2023-03-10T14:11:51.283Z,29.06
2023-03-10T14:15:19.265Z,29.12
2023-03-10T14:18:42.737Z,29.13
2023-03-10T14:22:21.662Z,29.13
2023-03-10T14:25:43.365Z,29.14
2023-03-10T14:29:20.789Z,29.12
2023-03-10T14:32:42.464Z,29.12
2023-03-10T14:36:10.996Z,29.14
2023-03-10T14:39:34.314Z,29.17
2023-03-10T14:42:59.872Z,29.16
2023-03-10T14:46:22.014Z,29.11
2023-03-10T14:49:44.275Z,29.05
2023-03-10T14:53:11.046Z,28.98
2023-03-10T14:56:33.524Z,28.92
2023-03-10T14:59:55.257Z,28.85
2023-03-10T15:03:17.494Z,28.79
2023-03-10T15:06:39.237Z,28.73
2023-03-10T15:10:12.147Z,28.68
2023-03-10T15:13:38.160Z,28.65
2023-03-10T15:17:00.595Z,28.67
2023-03-10T15:20:25.009Z,28.69
2023-03-10T15:23:47.132Z,28.73
2023-03-10T15:27:13.913Z,28.77
2023-03-10T15:30:36.783Z,28.82
2023-03-10T15:33:58.521Z,28.85
2023-03-10T15:37:20.388Z,28.88
2023-03-10T15:40:45.130Z,28.90
2023-03-10T15:44:07.936Z,28.91
2023-03-10T15:47:29.731Z,28.92
2023-03-10T15:50:51.490Z,28.97
2023-03-10T15:54:13.433Z,29.01
2023-03-10T15:57:35.171Z,29.05
2023-03-10T16:00:56.882Z,29.09
2023-03-10T16:04:19.372Z,29.16
2023-03-10T16:07:41.356Z,29.24
2023-03-10T16:11:06.150Z,29.32
2023-03-10T16:14:29.180Z,29.42
2023-03-10T16:17:53.720Z,29.55
2023-03-10T16:21:17.898Z,29.68
2023-03-10T16:24:40.403Z,29.80
2023-03-10T16:28:04.892Z,29.94
2023-03-10T16:31:27.700Z,30.04
2023-03-10T16:34:49.562Z,30.15
2023-03-10T16:38:11.399Z,30.25
2023-03-10T16:41:33.366Z,30.32
2023-03-10T16:44:56.628Z,30.39
2023-03-10T16:48:19.770Z,30.46
2023-03-10T16:51:43.826Z,30.50
2023-03-10T16:55:11.499Z,30.55
2023-03-10T16:58:34.057Z,30.61
2023-03-10T17:01:55.781Z,30.67
2023-03-10T17:05:17.667Z,30.72
2023-03-10T17:08:40.781Z,30.80
2023-03-10T17:12:02.917Z,30.87
2023-03-10T17:15:27.187Z,30.92
2023-03-10T17:18:49.304Z,30.99
2023-03-10T17:22:11.191Z,31.06
2023-03-10T17:29:17.446Z,31.21
2023-03-10T17:32:39.226Z,31.28
2023-03-10T17:36:09.494Z,31.33
2023-03-10T17:39:31.593Z,31.37
2023-03-10T17:42:56.627Z,31.40
2023-03-10T17:46:31.935Z,31.38
2023-03-10T17:49:57.030Z,31.40
2023-03-10T17:53:19.663Z,31.42
2023-03-10T17:56:41.456Z,31.43
2023-03-10T18:00:04.072Z,31.45
2023-03-10T18:03:38.037Z,31.50
2023-03-10T18:07:00.229Z,31.57
2023-03-10T18:10:23.548Z,31.62
2023-03-10T18:13:45.436Z,31.68
2023-03-10T18:17:12.485Z,31.73
2023-03-10T18:20:40.737Z,31.79
2023-03-10T18:24:03.090Z,31.81
2023-03-10T18:27:24.922Z,31.84
2023-03-10T18:30:49.248Z,31.85
2023-03-10T18:34:13.200Z,31.87
2023-03-10T18:37:35.040Z,31.88
2023-03-10T18:41:01.346Z,31.87
2023-03-10T18:44:23.256Z,31.87
2023-03-10T18:47:46.840Z,31.87
2023-03-10T18:51:10.314Z,31.88
2023-03-10T18:58:30.073Z,31.81
2023-03-10T19:01:52.413Z,31.76
2023-03-10T19:05:16.253Z,31.72
2023-03-10T19:08:44.566Z,31.68
2023-03-10T19:12:35.111Z,31.61
2023-03-10T19:15:57.291Z,31.58
2023-03-10T19:19:24.789Z,31.54
2023-03-10T19:26:39.992Z,31.49
2023-03-10T19:30:06.186Z,31.52
2023-03-10T19:33:28.060Z,31.57
2023-03-10T19:37:13.546Z,31.61
2023-03-10T19:40:43.510Z,31.63
2023-03-10T19:44:05.497Z,31.67
2023-03-10T19:47:30.630Z,31.72
2023-03-10T19:50:56.681Z,31.77
2023-03-10T19:54:20.768Z,31.80
2023-03-10T19:58:06.668Z,31.83
2023-03-10T20:01:28.988Z,31.86
2023-03-10T20:04:56.972Z,31.89
2023-03-10T20:08:19.090Z,31.93
2023-03-10T20:11:41.543Z,31.97
2023-03-10T20:15:05.037Z,32.01
2023-03-10T20:18:26.850Z,32.06
2023-03-10T20:21:50.652Z,32.09
2023-03-10T20:25:18.615Z,32.06
2023-03-10T20:28:40.694Z,31.84
2023-03-10T20:32:04.477Z,31.57
2023-03-10T20:35:28.159Z,31.27
2023-03-10T20:38:50.133Z,31.00
2023-03-10T20:42:12.843Z,30.75
2023-03-10T20:45:35.286Z,30.54
2023-03-10T20:48:57.036Z,30.34
2023-03-10T20:52:21.368Z,30.17
2023-03-10T20:55:43.159Z,30.02
2023-03-10T20:59:05.001Z,29.90
2023-03-10T21:02:29.207Z,29.77
2023-03-10T21:05:51.102Z,29.68
2023-03-10T21:09:13.219Z,29.58
2023-03-10T21:12:35.192Z,29.50
2023-03-10T21:15:59.378Z,29.42
2023-03-10T21:19:21.339Z,29.35
2023-03-10T21:22:43.300Z,29.30
2023-03-10T21:26:19.747Z,29.25
2023-03-10T21:29:42.599Z,29.20
2023-03-10T21:33:04.624Z,29.18
2023-03-10T21:36:26.571Z,29.12
2023-03-10T21:39:48.390Z,29.09
2023-03-10T21:43:13.211Z,29.05
2023-03-10T21:46:35.162Z,29.03
2023-03-10T21:49:57.257Z,28.99
2023-03-10T21:53:19.222Z,28.96
2023-03-10T21:56:41.569Z,28.94
2023-03-10T22:00:04.229Z,28.91
2023-03-10T22:03:29.486Z,28.89
2023-03-10T22:06:53.601Z,28.87
2023-03-10T22:10:16.385Z,28.85
2023-03-10T22:13:39.194Z,28.83
2023-03-10T22:17:00.962Z,28.81
2023-03-10T22:20:25.310Z,28.78
2023-03-10T22:23:47.024Z,28.76
2023-03-10T22:27:09.310Z,28.76
2023-03-10T22:30:31.884Z,28.74
2023-03-10T22:33:53.568Z,28.74
2023-03-10T22:37:15.279Z,28.72
2023-03-10T22:40:36.972Z,28.71
2023-03-10T22:43:58.855Z,28.71
2023-03-10T22:47:20.790Z,28.69
2023-03-10T22:50:46.787Z,28.68
2023-03-10T22:54:08.594Z,28.69
2023-03-10T22:57:30.302Z,28.68
2023-03-10T23:00:51.948Z,28.70
2023-03-10T23:04:14.017Z,28.69
2023-03-10T23:07:35.839Z,28.71
2023-03-10T23:10:57.558Z,28.72
2023-03-10T23:14:19.317Z,28.70
2023-03-10T23:17:41.089Z,28.72
2023-03-10T23:21:03.761Z,28.73
2023-03-10T23:24:25.655Z,28.72
2023-03-10T23:27:47.753Z,28.73
2023-03-10T23:31:15.442Z,28.73
2023-03-10T23:34:37.869Z,28.73
2023-03-10T23:38:01.011Z,28.73
2023-03-10T23:41:22.941Z,28.74
2023-03-10T23:44:45.158Z,28.75
2023-03-10T23:48:10.092Z,28.74
2023-03-10T23:51:31.815Z,28.74
2023-03-10T23:54:53.990Z,28.77
2023-03-10T23:58:17.820Z,28.76
